createdAt,value
2023-04-10T00:00:04.134Z,7.14
2023-04-10T00:02:31.430Z,7.15
2023-04-10T00:04:59.123Z,7.09
2023-04-10T00:07:26.484Z,7.08
2023-04-10T00:09:53.628Z,6.97
2023-04-10T00:12:20.979Z,6.91
2023-04-10T00:14:47.874Z,6.86
2023-04-10T00:17:14.723Z,6.82
2023-04-10T00:19:41.551Z,6.82
2023-04-10T00:22:08.385Z,6.79
2023-04-10T00:24:35.322Z,6.77
2023-04-10T00:27:02.198Z,6.76
2023-04-10T00:29:29.085Z,6.71
2023-04-10T00:31:55.962Z,6.75
2023-04-10T00:34:22.790Z,6.61
2023-04-10T00:36:49.662Z,6.54
2023-04-10T00:39:16.525Z,6.52
2023-04-10T00:41:43.465Z,6.42
2023-04-10T00:44:10.400Z,6.42
2023-04-10T00:46:39.079Z,6.40
2023-04-10T00:49:06.437Z,6.32
2023-04-10T00:51:33.782Z,6.29
2023-04-10T00:54:02.274Z,6.32
2023-04-10T00:56:32.166Z,6.31
2023-04-10T00:58:59.091Z,6.27
2023-04-10T01:01:26.251Z,6.25
2023-04-10T01:03:54.556Z,6.22
2023-04-10T01:06:21.596Z,6.27
2023-04-10T01:09:31.949Z,6.35
2023-04-10T01:12:12.287Z,6.39
2023-04-10T01:15:04.089Z,6.42
2023-04-10T01:17:59.943Z,6.42
2023-04-10T01:20:31.969Z,6.43
2023-04-10T01:23:12.610Z,6.37
2023-04-10T01:25:51.015Z,6.35
2023-04-10T01:29:01.594Z,6.44
2023-04-10T01:32:11.874Z,6.51
2023-04-10T01:34:47.927Z,6.50
2023-04-10T01:37:24.702Z,6.57
2023-04-10T01:39:59.650Z,6.44
2023-04-10T01:42:32.933Z,6.38
2023-04-10T01:45:01.251Z,6.31
2023-04-10T01:47:28.828Z,6.26
2023-04-10T01:49:56.774Z,6.15
2023-04-10T01:52:24.893Z,6.16
2023-04-10T01:54:53.280Z,6.17
2023-04-10T01:57:20.427Z,6.12
2023-04-10T01:59:47.412Z,6.16
2023-04-10T02:02:14.323Z,6.18
2023-04-10T02:04:41.350Z,6.13
2023-04-10T02:07:23.964Z,6.06
2023-04-10T02:10:15.568Z,6.04
2023-04-10T02:12:53.542Z,6.04
2023-04-10T02:15:23.729Z,5.89
2023-04-10T02:17:52.289Z,5.78
2023-04-10T02:20:19.640Z,5.75
2023-04-10T02:22:47.225Z,5.72
2023-04-10T02:25:14.939Z,5.70
2023-04-10T02:27:42.381Z,5.69
2023-04-10T02:30:09.662Z,5.75
2023-04-10T02:32:36.934Z,5.76
2023-04-10T02:35:04.441Z,5.74
2023-04-10T02:37:31.764Z,5.69
2023-04-10T02:39:58.597Z,5.68
2023-04-10T02:42:25.432Z,5.67
2023-04-10T02:44:52.239Z,5.65
2023-04-10T02:47:19.145Z,5.69
2023-04-10T02:49:46.075Z,5.67
2023-04-10T02:52:13.002Z,5.71
2023-04-10T02:54:40.336Z,5.77
2023-04-10T02:57:07.332Z,5.87
2023-04-10T02:59:34.211Z,5.86
2023-04-10T03:02:01.162Z,5.92
2023-04-10T03:04:29.082Z,5.94
2023-04-10T03:06:56.105Z,5.93
2023-04-10T03:09:22.912Z,5.82
2023-04-10T03:11:49.750Z,5.83
2023-04-10T03:14:17.127Z,5.83
2023-04-10T03:16:44.233Z,5.82
2023-04-10T03:19:12.773Z,5.83
2023-04-10T03:21:39.695Z,5.83
2023-04-10T03:24:07.134Z,5.83
2023-04-10T03:26:33.932Z,5.81
2023-04-10T03:29:00.867Z,5.79
2023-04-10T03:31:28.079Z,5.82
2023-04-10T03:33:55.200Z,5.78
2023-04-10T03:36:22.233Z,5.76
2023-04-10T03:38:49.162Z,5.69
2023-04-10T03:41:15.985Z,5.66
2023-04-10T03:43:42.777Z,5.70
2023-04-10T03:46:09.644Z,5.64
2023-04-10T03:48:36.453Z,5.59
2023-04-10T03:51:03.531Z,5.60
2023-04-10T03:53:30.422Z,5.61
2023-04-10T03:55:57.350Z,5.58
2023-04-10T03:58:24.201Z,5.64
2023-04-10T04:00:51.566Z,5.61
2023-04-10T04:03:18.619Z,5.69
2023-04-10T04:05:45.820Z,5.73
2023-04-10T04:08:13.998Z,5.78
2023-04-10T04:10:40.917Z,5.78
2023-04-10T04:13:07.732Z,5.76
2023-04-10T04:15:34.635Z,5.78
2023-04-10T04:18:01.494Z,5.79
2023-04-10T04:20:28.586Z,5.69
2023-04-10T04:22:55.540Z,5.69
2023-04-10T04:25:22.448Z,5.67
2023-04-10T04:27:49.251Z,5.68
2023-04-10T04:30:16.254Z,5.74
2023-04-10T04:32:43.151Z,5.69
2023-04-10T04:35:10.747Z,5.69
2023-04-10T04:37:37.600Z,5.60
2023-04-10T04:40:04.964Z,5.56
2023-04-10T04:42:31.734Z,5.58
2023-04-10T04:44:58.545Z,5.60
2023-04-10T04:47:25.655Z,5.64
2023-04-10T04:49:52.562Z,5.61
2023-04-10T04:52:19.392Z,5.62
2023-04-10T04:54:46.195Z,5.65
2023-04-10T04:57:13.053Z,5.68
2023-04-10T04:59:39.850Z,5.70
2023-04-10T05:02:06.989Z,5.74
2023-04-10T05:04:33.930Z,5.77
2023-04-10T05:07:01.005Z,5.80
2023-04-10T05:09:27.795Z,5.82
2023-04-10T05:11:54.751Z,5.91
2023-04-10T05:14:22.253Z,5.96
2023-04-10T05:16:49.114Z,6.05
2023-04-10T05:19:16.228Z,6.06
2023-04-10T05:21:43.353Z,6.09
2023-04-10T05:24:10.415Z,6.23
2023-04-10T05:26:37.446Z,6.29
2023-04-10T05:29:04.815Z,6.37
2023-04-10T05:31:31.793Z,6.37
2023-04-10T05:33:58.709Z,6.40
2023-04-10T05:36:25.605Z,6.48
2023-04-10T05:38:52.892Z,6.54
2023-04-10T05:41:20.058Z,6.68
2023-04-10T05:43:46.879Z,6.84
2023-04-10T05:46:13.761Z,6.90
2023-04-10T05:48:40.875Z,6.96
2023-04-10T05:51:07.962Z,7.01
2023-04-10T05:53:35.132Z,7.17
2023-04-10T05:56:04.980Z,7.44
2023-04-10T05:58:31.865Z,7.77
2023-04-10T06:00:58.796Z,8.09
2023-04-10T06:03:27.705Z,8.43
2023-04-10T06:05:56.069Z,8.64
2023-04-10T06:08:22.949Z,8.91
2023-04-10T06:10:49.830Z,9.15
2023-04-10T06:13:16.712Z,9.30
2023-04-10T06:15:43.581Z,9.73
2023-04-10T06:18:10.472Z,9.81
2023-04-10T06:20:37.291Z,10.08
2023-04-10T06:23:04.142Z,10.36
2023-04-10T06:25:31.011Z,10.60
2023-04-10T06:27:58.102Z,10.79
2023-04-10T06:30:25.002Z,11.03
2023-04-10T06:32:51.861Z,11.00
2023-04-10T06:35:18.771Z,11.05
2023-04-10T06:37:45.940Z,10.80
2023-04-10T06:40:16.090Z,11.15
2023-04-10T06:42:43.242Z,11.31
2023-04-10T06:45:10.583Z,11.42
2023-04-10T06:47:37.634Z,11.46
2023-04-10T06:50:04.951Z,11.26
2023-04-10T06:52:32.700Z,11.84
2023-04-10T06:54:59.841Z,11.84
2023-04-10T06:57:26.707Z,12.24
2023-04-10T06:59:53.614Z,12.61
2023-04-10T07:02:20.862Z,12.87
2023-04-10T07:04:47.776Z,13.18
2023-04-10T07:07:15.862Z,13.28
2023-04-10T07:09:42.915Z,13.65
2023-04-10T07:12:09.740Z,13.65
2023-04-10T07:14:36.686Z,13.52
2023-04-10T07:17:03.850Z,13.98
2023-04-10T07:19:31.325Z,13.91
2023-04-10T07:21:58.208Z,13.93
2023-04-10T07:24:25.192Z,13.77
2023-04-10T07:26:52.097Z,13.83
2023-04-10T07:29:20.988Z,14.28
2023-04-10T07:31:48.048Z,13.94
2023-04-10T07:34:15.067Z,14.32
2023-04-10T07:36:41.891Z,14.00
2023-04-10T07:39:08.704Z,14.46
2023-04-10T07:41:35.881Z,14.17
2023-04-10T07:44:02.734Z,14.53
2023-04-10T07:46:29.581Z,14.71
2023-04-10T07:48:56.652Z,15.32
2023-04-10T07:51:23.952Z,15.12
2023-04-10T07:53:50.807Z,15.60
2023-04-10T07:56:19.504Z,15.02
2023-04-10T07:58:47.467Z,14.81
2023-04-10T08:01:15.721Z,15.00
2023-04-10T08:03:45.620Z,15.71
2023-04-10T08:06:12.899Z,15.41
2023-04-10T08:08:42.090Z,15.88
2023-04-10T08:11:29.783Z,15.51
2023-04-10T08:14:01.603Z,15.62
2023-04-10T08:16:36.198Z,15.86
2023-04-10T08:19:03.768Z,16.13
2023-04-10T08:21:32.191Z,16.29
2023-04-10T08:24:01.811Z,16.48
2023-04-10T08:26:29.395Z,15.81
2023-04-10T08:28:59.864Z,15.50
2023-04-10T08:31:29.032Z,15.94
2023-04-10T08:33:57.277Z,16.02
2023-04-10T08:36:24.684Z,16.14
2023-04-10T08:38:51.576Z,16.43
2023-04-10T08:41:19.960Z,16.64
2023-04-10T08:43:47.507Z,16.21
2023-04-10T08:46:15.123Z,16.28
2023-04-10T08:49:03.284Z,16.32
2023-04-10T08:51:39.982Z,16.56
2023-04-10T08:54:11.872Z,16.43
2023-04-10T08:56:41.757Z,16.00
2023-04-10T08:59:09.255Z,15.04
2023-04-10T09:01:36.439Z,15.61
2023-04-10T09:04:03.603Z,16.23
2023-04-10T09:06:31.493Z,16.15
2023-04-10T09:11:52.555Z,16.39
2023-04-10T09:14:36.460Z,17.07
2023-04-10T09:17:20.327Z,17.60
2023-04-10T09:19:52.730Z,17.36
2023-04-10T09:22:36.343Z,17.02
2023-04-10T09:25:04.724Z,16.88
2023-04-10T09:27:37.386Z,17.40
2023-04-10T09:30:06.478Z,17.37
2023-04-10T09:32:46.457Z,17.45
2023-04-10T09:35:16.718Z,17.62
2023-04-10T09:37:46.619Z,17.16
2023-04-10T09:40:25.149Z,17.39
2023-04-10T09:42:53.354Z,16.77
2023-04-10T09:45:20.730Z,17.37
2023-04-10T09:48:08.501Z,17.51
2023-04-10T09:50:40.826Z,17.70
2023-04-10T09:53:19.255Z,17.60
2023-04-10T09:55:48.055Z,17.21
2023-04-10T09:58:16.402Z,17.67
2023-04-10T10:00:49.240Z,17.27
2023-04-10T10:03:19.703Z,17.65
2023-04-10T10:05:52.456Z,17.48
2023-04-10T10:08:20.001Z,18.22
2023-04-10T10:10:55.926Z,17.92
2023-04-10T10:13:41.218Z,17.91
2023-04-10T10:16:33.743Z,18.84
2023-04-10T10:19:10.785Z,18.44
2023-04-10T10:21:39.077Z,18.59
2023-04-10T10:24:09.457Z,18.24
2023-04-10T10:26:40.074Z,18.75
2023-04-10T10:29:11.095Z,18.19
2023-04-10T10:31:38.825Z,19.07
2023-04-10T10:34:09.173Z,18.73
2023-04-10T10:36:37.289Z,18.42
2023-04-10T10:39:29.750Z,18.94
2023-04-10T10:42:10.832Z,19.08
2023-04-10T10:45:11.637Z,18.49
2023-04-10T10:47:54.379Z,18.59
2023-04-10T10:50:24.270Z,19.26
2023-04-10T10:52:54.029Z,18.74
2023-04-10T10:55:36.428Z,19.88
2023-04-10T10:58:07.749Z,19.62
2023-04-10T11:00:52.933Z,20.20
2023-04-10T11:03:19.815Z,19.47
2023-04-10T11:05:58.649Z,19.52
2023-04-10T11:08:42.426Z,20.34
2023-04-10T11:11:15.769Z,20.19
2023-04-10T11:13:57.587Z,20.65
2023-04-10T11:16:44.215Z,20.88
2023-04-10T11:19:19.027Z,21.28
2023-04-10T11:22:05.268Z,21.15
2023-04-10T11:24:57.477Z,21.19
2023-04-10T11:27:45.837Z,21.40
2023-04-10T11:30:48.307Z,21.50
2023-04-10T11:33:19.119Z,20.97
2023-04-10T11:35:47.029Z,21.11
2023-04-10T11:38:18.088Z,20.59
2023-04-10T11:41:04.343Z,20.54
2023-04-10T11:43:32.142Z,20.46
2023-04-10T11:46:04.669Z,21.23
2023-04-10T11:48:32.403Z,21.34
2023-04-10T11:51:01.696Z,22.26
2023-04-10T11:53:29.998Z,21.93
2023-04-10T11:55:56.921Z,21.63
2023-04-10T11:58:30.481Z,22.08
2023-04-10T12:00:58.780Z,22.17
2023-04-10T12:03:37.513Z,22.12
2023-04-10T12:06:10.362Z,21.66
2023-04-10T12:08:41.223Z,21.45
2023-04-10T12:11:10.383Z,20.18
2023-04-10T12:13:37.900Z,21.17
2023-04-10T12:16:08.231Z,21.15
2023-04-10T12:18:35.997Z,20.98
2023-04-10T12:21:05.536Z,21.61
2023-04-10T12:23:37.325Z,22.22
2023-04-10T12:26:14.554Z,22.06
2023-04-10T12:28:50.796Z,21.97
2023-04-10T12:31:17.882Z,22.07
2023-04-10T12:33:47.794Z,22.77
2023-04-10T12:36:32.154Z,22.98
2023-04-10T12:39:01.566Z,23.19
2023-04-10T12:41:37.261Z,22.74
2023-04-10T12:44:09.608Z,22.58
2023-04-10T12:46:36.728Z,23.74
2023-04-10T12:49:18.370Z,24.10
2023-04-10T12:51:50.530Z,24.50
2023-04-10T12:54:35.193Z,24.62
2023-04-10T12:57:04.213Z,25.68
2023-04-10T12:59:31.657Z,25.72
2023-04-10T13:01:58.804Z,25.60
2023-04-10T13:04:26.205Z,25.07
2023-04-10T13:06:53.356Z,24.38
2023-04-10T13:09:20.373Z,24.98
2023-04-10T13:11:48.488Z,26.36
2023-04-10T13:14:17.013Z,25.92
2023-04-10T13:16:44.090Z,26.03
2023-04-10T13:19:11.005Z,27.09
2023-04-10T13:21:37.838Z,26.71
2023-04-10T13:24:04.779Z,26.92
2023-04-10T13:26:31.626Z,26.72
2023-04-10T13:28:58.468Z,27.24
2023-04-10T13:31:25.517Z,27.56
2023-04-10T13:33:52.415Z,27.97
2023-04-10T13:36:19.350Z,27.01
2023-04-10T13:38:46.270Z,27.51
2023-04-10T13:41:13.118Z,27.68
2023-04-10T13:43:40.226Z,28.25
2023-04-10T13:46:07.379Z,28.11
2023-04-10T13:48:40.447Z,28.00
2023-04-10T13:51:08.297Z,28.33
2023-04-10T13:53:35.775Z,29.76
2023-04-10T13:56:02.600Z,29.56
2023-04-10T13:58:31.914Z,28.26
2023-04-10T14:00:59.337Z,28.30
2023-04-10T14:03:26.409Z,27.49
2023-04-10T14:05:54.349Z,28.75
2023-04-10T14:08:21.306Z,29.88
2023-04-10T14:10:51.502Z,30.95
2023-04-10T14:13:18.821Z,31.52
2023-04-10T14:15:46.027Z,31.94
2023-04-10T14:18:13.094Z,32.05
2023-04-10T14:20:42.350Z,30.82
2023-04-10T14:23:09.807Z,31.57
2023-04-10T14:25:36.710Z,32.07
2023-04-10T14:28:03.563Z,33.34
2023-04-10T14:30:32.664Z,33.49
2023-04-10T14:32:59.814Z,32.78
2023-04-10T14:35:26.875Z,32.87
2023-04-10T14:37:53.729Z,31.36
2023-04-10T14:40:20.821Z,31.58
2023-04-10T14:42:47.623Z,30.78
2023-04-10T14:45:14.546Z,31.25
2023-04-10T14:47:41.807Z,32.10
2023-04-10T14:50:09.109Z,31.72
2023-04-10T14:52:35.957Z,32.11
2023-04-10T14:55:02.863Z,29.58
2023-04-10T14:57:29.769Z,30.53
2023-04-10T14:59:56.834Z,31.45
2023-04-10T15:02:24.196Z,32.06
2023-04-10T15:04:51.201Z,32.02
2023-04-10T15:07:18.188Z,31.74
2023-04-10T15:09:46.239Z,32.13
2023-04-10T15:12:13.071Z,32.33
2023-04-10T15:14:39.953Z,33.33
2023-04-10T15:17:06.980Z,34.83
2023-04-10T15:19:33.846Z,32.95
2023-04-10T15:22:00.770Z,34.28
2023-04-10T15:24:29.129Z,34.19
2023-04-10T15:26:57.848Z,34.44
2023-04-10T15:29:24.711Z,32.68
2023-04-10T15:31:51.569Z,31.68
2023-04-10T15:34:19.036Z,30.03
2023-04-10T15:36:45.853Z,28.17
2023-04-10T15:39:12.787Z,26.82
2023-04-10T15:41:39.587Z,25.10
2023-04-10T15:44:06.432Z,23.62
2023-04-10T15:46:34.117Z,23.09
2023-04-10T15:49:01.407Z,22.86
2023-04-10T15:51:28.257Z,22.60
2023-04-10T15:53:55.291Z,21.73
2023-04-10T15:56:22.368Z,22.03
2023-04-10T15:58:49.210Z,21.83
2023-04-10T16:01:16.091Z,21.91
2023-04-10T16:03:43.187Z,21.93
2023-04-10T16:06:10.299Z,20.98
2023-04-10T16:08:37.115Z,21.15
2023-04-10T16:11:04.089Z,21.26
2023-04-10T16:13:30.970Z,20.42
2023-04-10T16:15:57.870Z,19.92
2023-04-10T16:18:24.851Z,19.74
2023-04-10T16:20:51.863Z,19.56
2023-04-10T16:23:19.825Z,19.59
2023-04-10T16:25:46.640Z,18.99
2023-04-10T16:28:13.565Z,19.28
2023-04-10T16:30:40.476Z,19.31
2023-04-10T16:33:07.360Z,19.46
2023-04-10T16:35:34.319Z,19.44
2023-04-10T16:38:01.783Z,19.36
2023-04-10T16:40:32.376Z,18.90
2023-04-10T16:43:02.796Z,19.03
2023-04-10T16:45:29.854Z,18.85
2023-04-10T16:47:56.813Z,18.87
2023-04-10T16:50:23.730Z,18.75
2023-04-10T16:52:50.616Z,18.31
2023-04-10T16:55:17.634Z,18.25
2023-04-10T16:57:44.457Z,18.49
2023-04-10T17:00:11.964Z,18.66
2023-04-10T17:02:39.570Z,18.61
2023-04-10T17:05:06.678Z,18.34
2023-04-10T17:07:34.409Z,18.31
2023-04-10T17:10:01.263Z,18.11
2023-04-10T17:12:28.177Z,17.81
2023-04-10T17:14:55.037Z,17.83
2023-04-10T17:17:22.002Z,17.96
2023-04-10T17:19:49.214Z,17.59
2023-04-10T17:22:16.335Z,17.46
2023-04-10T17:24:44.402Z,17.55
2023-04-10T17:27:12.145Z,17.38
2023-04-10T17:29:39.551Z,17.40
2023-04-10T17:32:08.685Z,17.09
2023-04-10T17:34:36.145Z,17.27
2023-04-10T17:37:03.109Z,17.22
2023-04-10T17:39:30.059Z,17.13
2023-04-10T17:41:57.192Z,17.14
2023-04-10T17:44:24.196Z,16.93
2023-04-10T17:46:51.114Z,16.96
2023-04-10T17:49:17.996Z,16.67
2023-04-10T17:51:44.888Z,17.03
2023-04-10T17:54:11.776Z,16.92
2023-04-10T17:56:38.722Z,16.73
2023-04-10T17:59:05.611Z,16.58
2023-04-10T18:01:32.524Z,16.51
2023-04-10T18:04:00.376Z,16.48
2023-04-10T18:06:27.561Z,16.62
2023-04-10T18:08:58.184Z,16.58
2023-04-10T18:11:25.284Z,16.61
2023-04-10T18:13:52.362Z,16.36
2023-04-10T18:16:19.281Z,16.43
2023-04-10T18:18:46.166Z,16.35
2023-04-10T18:21:13.698Z,16.42
2023-04-10T18:23:40.666Z,16.37
2023-04-10T18:26:07.773Z,16.21
2023-04-10T18:28:35.838Z,16.09
2023-04-10T18:31:02.778Z,16.18
2023-04-10T18:33:29.724Z,16.10
2023-04-10T18:35:59.268Z,16.03
2023-04-10T18:38:26.765Z,16.13
2023-04-10T18:40:57.772Z,16.03
2023-04-10T18:43:25.546Z,16.03
2023-04-10T18:45:52.544Z,16.04
2023-04-10T18:48:19.503Z,15.77
2023-04-10T18:50:46.360Z,15.82
2023-04-10T18:53:13.186Z,15.57
2023-04-10T18:55:39.974Z,15.75
2023-04-10T18:58:06.843Z,15.76
2023-04-10T19:00:34.247Z,15.65
2023-04-10T19:03:01.306Z,15.57
2023-04-10T19:05:32.622Z,15.33
2023-04-10T19:08:04.728Z,15.19
2023-04-10T19:10:32.674Z,15.29
2023-04-10T19:12:59.745Z,15.44
2023-04-10T19:15:27.450Z,15.24
2023-04-10T19:17:55.046Z,15.23
2023-04-10T19:20:50.892Z,15.14
2023-04-10T19:23:09.648Z,14.86
2023-04-10T19:25:36.502Z,14.86
2023-04-10T19:28:03.668Z,14.71
2023-04-10T19:30:30.639Z,14.88
2023-04-10T19:32:57.618Z,14.87
2023-04-10T19:35:24.856Z,14.74
2023-04-10T19:37:51.683Z,14.74
2023-04-10T19:40:19.422Z,14.56
2023-04-10T19:42:46.326Z,14.69
2023-04-10T19:45:14.943Z,14.65
2023-04-10T19:47:41.821Z,14.57
2023-04-10T19:50:09.076Z,14.47
2023-04-10T19:52:36.102Z,14.57
2023-04-10T19:55:02.988Z,14.75
2023-04-10T19:57:29.853Z,14.64
2023-04-10T19:59:56.772Z,14.60
2023-04-10T20:02:23.751Z,14.62
2023-04-10T20:04:50.903Z,14.63
2023-04-10T20:07:17.721Z,14.44
2023-04-10T20:09:44.612Z,14.64
2023-04-10T20:12:11.429Z,14.56
2023-04-10T20:14:38.510Z,14.55
2023-04-10T20:17:05.349Z,14.34
2023-04-10T20:19:32.262Z,14.24
2023-04-10T20:22:01.540Z,14.03
2023-04-10T20:24:29.141Z,14.21
2023-04-10T20:26:57.198Z,14.11
2023-04-10T20:29:23.999Z,14.16
2023-04-10T20:31:50.878Z,14.02
2023-04-10T20:34:17.693Z,14.05
2023-04-10T20:36:44.582Z,14.01
2023-04-10T20:39:11.397Z,13.86
2023-04-10T20:41:38.185Z,13.91
2023-04-10T20:44:05.017Z,13.91
2023-04-10T20:46:31.886Z,13.90
2023-04-10T20:48:59.245Z,13.88
2023-04-10T20:51:29.920Z,13.81
2023-04-10T20:53:56.767Z,13.84
2023-04-10T20:56:32.835Z,13.76
2023-04-10T20:59:03.609Z,13.76
2023-04-10T21:01:30.716Z,13.71
2023-04-10T21:03:58.686Z,13.71
2023-04-10T21:06:26.517Z,13.72
2023-04-10T21:08:53.644Z,13.67
2023-04-10T21:11:22.056Z,13.63
2023-04-10T21:13:49.313Z,13.58
2023-04-10T21:16:16.328Z,13.56
2023-04-10T21:18:43.243Z,13.52
2023-04-10T21:21:10.538Z,13.46
2023-04-10T21:23:37.341Z,13.40
2023-04-10T21:26:04.226Z,13.36
2023-04-10T21:28:31.087Z,13.36
2023-04-10T21:30:57.942Z,13.37
2023-04-10T21:33:24.816Z,13.41
2023-04-10T21:35:51.721Z,13.29
2023-04-10T21:38:18.531Z,13.25
2023-04-10T21:40:55.056Z,13.28
2023-04-10T21:43:22.345Z,13.21
2023-04-10T21:45:49.466Z,13.27
2023-04-10T21:48:16.468Z,13.15
2023-04-10T21:50:43.428Z,13.05
2023-04-10T21:53:10.371Z,13.10
2023-04-10T21:55:37.473Z,13.18
2023-04-10T21:58:04.836Z,13.10
2023-04-10T22:00:33.189Z,13.09
2023-04-10T22:03:00.363Z,13.02
2023-04-10T22:05:27.597Z,13.02
2023-04-10T22:07:54.975Z,13.00
2023-04-10T22:10:21.900Z,13.00
2023-04-10T22:12:49.133Z,13.04
2023-04-10T22:15:17.070Z,12.96
2023-04-10T22:17:43.989Z,13.01
2023-04-10T22:20:11.209Z,12.99
2023-04-10T22:22:38.061Z,12.97
2023-04-10T22:25:05.502Z,12.96
2023-04-10T22:27:33.404Z,12.91
2023-04-10T22:30:03.777Z,12.82
2023-04-10T22:32:32.122Z,12.82
2023-04-10T22:34:59.958Z,12.78
2023-04-10T22:37:27.595Z,12.73
2023-04-10T22:39:56.091Z,12.76
2023-04-10T22:42:23.663Z,12.82
2023-04-10T22:44:50.636Z,12.76
2023-04-10T22:47:17.954Z,12.80
2023-04-10T22:49:45.260Z,12.77
2023-04-10T22:52:16.169Z,12.81
2023-04-10T22:54:43.039Z,12.83
2023-04-10T22:57:10.351Z,12.83
2023-04-10T22:59:37.909Z,12.78
2023-04-10T23:02:04.921Z,12.81
2023-04-10T23:04:32.056Z,12.75
2023-04-10T23:06:59.230Z,12.73
2023-04-10T23:09:26.068Z,12.75
2023-04-10T23:11:52.897Z,12.73
2023-04-10T23:14:20.306Z,12.82
2023-04-10T23:16:47.168Z,12.85
2023-04-10T23:19:14.148Z,12.84
2023-04-10T23:21:41.115Z,12.84
2023-04-10T23:24:08.069Z,12.89
2023-04-10T23:26:34.970Z,12.88
2023-04-10T23:29:02.012Z,12.85
2023-04-10T23:31:28.851Z,12.76
2023-04-10T23:33:55.776Z,12.70
2023-04-10T23:36:22.578Z,12.74
2023-04-10T23:38:49.458Z,12.74
2023-04-10T23:41:16.314Z,12.79
2023-04-10T23:43:43.819Z,12.72
2023-04-10T23:46:10.648Z,12.75
2023-04-10T23:48:37.520Z,12.64
2023-04-10T23:51:08.659Z,12.71
2023-04-10T23:53:35.515Z,12.68
2023-04-10T23:56:02.326Z,12.68
2023-04-10T23:58:29.204Z,12.62
